Terminal Aerodrome Forecast
Issued by NWS

Home | Current Version | Previous Version | Text Only | Print | Product List | Glossary On
Versions: 1 2 3 4 5 6 7 8 9 10 11 12 13 14 15 16 17 18 19 20 21 22 23 24
000
FTUS44 KOUN 292324
TAFPNC
TAF
KPNC 292324Z 3000/3024 35015G25KT P6SM SCT120 BKN200
      TEMPO 3000/3002 5SM -TSRA BKN040CB
     FM300400 09012KT P6SM SCT080 BKN150 PROB30 3009/3015 6SM -SHRA
      BKN030 OVC080
     FM301500 07009KT P6SM BKN150 PROB30 3020/3024 4SM TSRA
      BKN040CB=

USA.gov is the U.S. government's official web portal to all federal, state and local government web resources and services.